createdAt,value
2023-09-29T00:00:35.694Z,9.60
2023-09-29T00:03:22.845Z,8.98
2023-09-29T00:05:51.015Z,7.25
2023-09-29T00:08:18.164Z,14.57
2023-09-29T00:10:46.569Z,8.93
2023-09-29T00:13:13.916Z,7.55
2023-09-29T00:15:41.197Z,9.38
2023-09-29T00:18:11.134Z,11.98
2023-09-29T00:20:38.464Z,10.98
2023-09-29T00:23:05.439Z,12.80
2023-09-29T00:25:32.663Z,11.55
2023-09-29T00:27:59.937Z,9.25
2023-09-29T00:30:27.434Z,10.02
2023-09-29T00:32:55.366Z,8.18
2023-09-29T00:35:25.381Z,6.43
2023-09-29T00:37:53.195Z,10.52
2023-09-29T00:40:20.563Z,9.15
2023-09-29T00:42:50.339Z,9.07
2023-09-29T00:45:20.992Z,10.68
2023-09-29T00:47:51.011Z,12.33
2023-09-29T00:50:20.087Z,14.85
2023-09-29T00:52:48.898Z,16.05
2023-09-29T00:55:18.948Z,14.77
2023-09-29T00:57:49.460Z,16.02
2023-09-29T01:00:37.079Z,16.43
2023-09-29T01:03:14.576Z,15.52
2023-09-29T01:05:47.682Z,13.70
2023-09-29T01:08:20.306Z,13.68
2023-09-29T01:10:48.535Z,12.68
2023-09-29T01:13:16.677Z,15.07
2023-09-29T01:15:44.066Z,10.93
2023-09-29T01:18:11.743Z,8.70
2023-09-29T01:20:41.939Z,10.20
2023-09-29T01:23:09.803Z,10.18
2023-09-29T01:25:38.151Z,7.67
2023-09-29T01:28:07.206Z,6.95
2023-09-29T01:30:35.298Z,9.40
2023-09-29T01:33:02.418Z,8.13
2023-09-29T01:35:29.955Z,9.02
2023-09-29T01:38:01.543Z,7.50
2023-09-29T01:40:29.785Z,8.27
2023-09-29T01:42:58.429Z,8.15
2023-09-29T01:45:27.816Z,8.07
2023-09-29T01:47:56.114Z,9.48
2023-09-29T01:50:24.283Z,10.13
2023-09-29T01:52:52.567Z,12.35
2023-09-29T01:55:21.706Z,8.48
2023-09-29T01:57:49.855Z,7.45
2023-09-29T02:00:21.270Z,8.15
2023-09-29T02:02:49.457Z,6.43
2023-09-29T02:05:17.987Z,6.60
2023-09-29T02:07:45.783Z,6.50
2023-09-29T02:10:14.185Z,6.10
2023-09-29T02:13:06.698Z,6.90
2023-09-29T02:15:35.836Z,6.07
2023-09-29T02:18:03.744Z,6.97
2023-09-29T02:20:31.912Z,7.47
2023-09-29T02:22:59.667Z,7.50
2023-09-29T02:25:31.577Z,6.70
2023-09-29T02:28:00.776Z,6.53
2023-09-29T02:30:29.448Z,7.07
2023-09-29T02:32:57.938Z,6.47
2023-09-29T02:35:25.930Z,6.20
2023-09-29T02:37:56.291Z,12.88
2023-09-29T02:40:23.944Z,13.13
2023-09-29T02:42:51.362Z,15.82
2023-09-29T02:45:20.060Z,15.27
2023-09-29T02:47:49.259Z,12.05
2023-09-29T02:50:18.093Z,15.35
2023-09-29T02:52:45.731Z,15.27
2023-09-29T02:55:14.857Z,10.77
2023-09-29T02:57:43.094Z,8.63
2023-09-29T03:00:21.161Z,8.35
2023-09-29T03:02:49.496Z,12.77
2023-09-29T03:05:18.098Z,14.13
2023-09-29T03:07:45.301Z,14.82
2023-09-29T03:10:17.166Z,15.77
2023-09-29T03:12:47.319Z,15.93
2023-09-29T03:15:17.295Z,12.75
2023-09-29T03:17:48.274Z,14.33
2023-09-29T03:20:17.341Z,16.17
2023-09-29T03:22:46.617Z,16.35
2023-09-29T03:25:22.365Z,16.73
2023-09-29T03:27:49.714Z,15.77
2023-09-29T03:30:17.368Z,10.17
2023-09-29T03:32:45.568Z,10.65
2023-09-29T03:35:14.991Z,13.32
2023-09-29T03:37:44.102Z,15.73
2023-09-29T03:40:12.164Z,15.65
2023-09-29T03:42:43.040Z,17.63
2023-09-29T03:45:13.180Z,18.42
2023-09-29T03:47:40.907Z,17.77
2023-09-29T03:50:13.244Z,19.17
2023-09-29T03:52:41.800Z,17.67
2023-09-29T03:55:11.528Z,21.60
2023-09-29T03:57:39.223Z,17.98
2023-09-29T04:00:13.311Z,16.75
2023-09-29T04:02:42.188Z,10.13
2023-09-29T04:05:10.976Z,11.13
2023-09-29T04:07:40.772Z,8.77
2023-09-29T04:10:10.126Z,9.82
2023-09-29T04:12:42.250Z,8.50
2023-09-29T04:15:11.387Z,9.82
2023-09-29T04:17:39.682Z,10.30
2023-09-29T04:20:08.283Z,11.00
2023-09-29T04:22:35.671Z,9.73
2023-09-29T04:25:03.352Z,10.63
2023-09-29T04:27:30.919Z,11.73
2023-09-29T04:29:58.692Z,8.70
2023-09-29T04:32:25.726Z,10.03
2023-09-29T04:34:52.943Z,12.10
2023-09-29T04:37:20.011Z,12.75
2023-09-29T04:39:47.284Z,12.70
2023-09-29T04:42:15.774Z,17.33
2023-09-29T04:44:43.097Z,13.43
2023-09-29T04:47:10.023Z,15.27
2023-09-29T04:49:37.330Z,15.63
2023-09-29T04:52:04.736Z,16.27
2023-09-29T04:54:32.028Z,10.52
2023-09-29T04:56:58.979Z,13.07
2023-09-29T04:59:26.205Z,15.57
2023-09-29T05:01:53.124Z,20.15
2023-09-29T05:04:20.416Z,12.40
2023-09-29T05:06:47.324Z,11.80
2023-09-29T05:09:14.594Z,11.53
2023-09-29T05:11:41.530Z,10.60
2023-09-29T05:14:08.893Z,9.80
2023-09-29T05:16:35.851Z,9.73
2023-09-29T05:19:03.304Z,8.25
2023-09-29T05:21:32.608Z,8.23
2023-09-29T05:23:59.976Z,9.13
2023-09-29T05:26:27.023Z,10.63
2023-09-29T05:28:55.544Z,11.52
2023-09-29T05:31:23.220Z,11.00
2023-09-29T05:33:50.728Z,14.27
2023-09-29T05:36:17.649Z,14.10
2023-09-29T05:38:44.926Z,15.95
2023-09-29T05:41:11.844Z,13.98
2023-09-29T05:43:39.201Z,16.27
2023-09-29T05:46:06.220Z,18.43
2023-09-29T05:48:33.537Z,14.98
2023-09-29T05:51:01.846Z,14.50
2023-09-29T05:53:29.102Z,23.60
2023-09-29T05:55:56.033Z,54.22
2023-09-29T05:58:24.277Z,78.63
2023-09-29T06:00:51.175Z,33.05
2023-09-29T06:03:18.489Z,14.77
2023-09-29T06:05:45.565Z,10.95
2023-09-29T06:08:12.910Z,24.67
2023-09-29T06:10:39.824Z,10.57
2023-09-29T06:13:08.098Z,12.15
2023-09-29T06:15:36.175Z,9.27
2023-09-29T06:18:03.921Z,10.82
2023-09-29T06:20:31.489Z,10.23
2023-09-29T06:22:58.780Z,8.00
2023-09-29T06:25:25.689Z,11.27
2023-09-29T06:27:53.272Z,17.15
2023-09-29T06:30:20.164Z,8.68
2023-09-29T06:32:47.544Z,8.45
2023-09-29T06:35:16.279Z,9.30
2023-09-29T06:37:43.649Z,11.65
2023-09-29T06:40:11.912Z,13.40
2023-09-29T06:42:39.991Z,10.10
2023-09-29T06:45:07.703Z,9.43
2023-09-29T06:47:35.784Z,9.83
2023-09-29T06:50:02.849Z,11.07
2023-09-29T06:52:30.167Z,10.10
2023-09-29T06:54:57.289Z,9.75
2023-09-29T06:57:25.437Z,10.27
2023-09-29T06:59:52.831Z,7.80
2023-09-29T07:02:20.604Z,9.13
2023-09-29T07:04:49.291Z,10.43
2023-09-29T07:07:16.909Z,9.13
2023-09-29T07:09:44.289Z,12.07
2023-09-29T07:12:11.930Z,7.97
2023-09-29T07:14:38.865Z,7.50
2023-09-29T07:17:06.670Z,8.73
2023-09-29T07:19:45.066Z,9.80
2023-09-29T07:22:13.294Z,9.43
2023-09-29T07:24:42.025Z,11.60
2023-09-29T07:27:12.252Z,10.90
2023-09-29T07:29:39.260Z,7.15
2023-09-29T07:32:06.511Z,8.40
2023-09-29T07:34:33.505Z,11.25
2023-09-29T07:37:00.984Z,9.57
2023-09-29T07:39:27.925Z,8.80
2023-09-29T07:41:55.236Z,11.60
2023-09-29T07:44:22.253Z,10.23
2023-09-29T07:46:54.356Z,9.63
2023-09-29T07:49:24.542Z,10.30
2023-09-29T07:51:52.283Z,10.90
2023-09-29T07:54:22.056Z,11.45
2023-09-29T07:56:51.663Z,11.63
2023-09-29T07:59:20.288Z,9.80
2023-09-29T08:01:50.983Z,13.07
2023-09-29T08:04:18.563Z,12.27
2023-09-29T08:06:46.549Z,15.60
2023-09-29T08:09:14.250Z,12.77
2023-09-29T08:11:42.910Z,11.18
2023-09-29T08:14:10.444Z,13.13
2023-09-29T08:16:37.805Z,12.50
2023-09-29T08:19:06.314Z,12.57
2023-09-29T08:21:36.508Z,11.32
2023-09-29T08:24:04.339Z,15.32
2023-09-29T08:26:32.653Z,12.20
2023-09-29T08:29:01.248Z,12.38
2023-09-29T08:31:28.983Z,13.23
2023-09-29T08:33:56.038Z,11.48
2023-09-29T08:36:23.545Z,11.10
2023-09-29T08:38:50.557Z,13.77
2023-09-29T08:41:20.198Z,12.07
2023-09-29T08:44:04.157Z,12.30
2023-09-29T08:46:36.323Z,13.10
2023-09-29T08:49:04.987Z,14.05
2023-09-29T08:51:34.836Z,14.10
2023-09-29T08:54:04.400Z,14.70
2023-09-29T08:56:32.437Z,19.13
2023-09-29T08:59:02.804Z,10.52
2023-09-29T09:01:31.662Z,13.30
2023-09-29T09:03:59.474Z,11.77
2023-09-29T09:06:28.450Z,19.30
2023-09-29T09:08:56.664Z,11.45
2023-09-29T09:11:25.245Z,18.08
2023-09-29T09:14:04.956Z,13.48
2023-09-29T09:16:38.223Z,11.50
2023-09-29T09:19:15.785Z,15.20
2023-09-29T09:21:44.850Z,12.98
2023-09-29T09:24:22.628Z,10.00
2023-09-29T09:26:51.127Z,10.43
2023-09-29T09:29:19.369Z,9.17
2023-09-29T09:31:48.684Z,9.15
2023-09-29T09:34:15.694Z,11.88
2023-09-29T09:36:51.377Z,9.38
2023-09-29T09:39:19.928Z,11.05
2023-09-29T09:41:49.573Z,9.47
2023-09-29T09:44:18.754Z,8.60
2023-09-29T09:47:04.164Z,13.95
2023-09-29T09:49:45.741Z,9.82
2023-09-29T09:52:14.028Z,7.72
2023-09-29T09:54:47.847Z,13.17
2023-09-29T09:57:30.411Z,9.32
2023-09-29T09:59:57.533Z,10.20
2023-09-29T10:02:25.817Z,7.30
2023-09-29T10:04:53.498Z,7.53
2023-09-29T10:07:22.633Z,9.60
2023-09-29T10:09:50.767Z,9.27
2023-09-29T10:12:24.917Z,8.20
2023-09-29T10:14:53.706Z,8.45
2023-09-29T10:17:21.922Z,9.10
2023-09-29T10:19:52.856Z,7.00
2023-09-29T10:22:28.986Z,8.45
2023-09-29T10:25:00.899Z,8.30
2023-09-29T10:27:33.481Z,8.43
2023-09-29T10:30:16.802Z,7.55
2023-09-29T10:32:50.362Z,8.43
2023-09-29T10:35:22.079Z,8.48
2023-09-29T10:37:56.298Z,8.43
2023-09-29T10:40:33.196Z,7.18
2023-09-29T10:43:03.682Z,11.07
2023-09-29T10:45:37.670Z,9.63
2023-09-29T10:48:09.401Z,6.05
2023-09-29T10:50:52.571Z,7.47
2023-09-29T10:53:24.149Z,8.15
2023-09-29T10:55:53.199Z,7.68
2023-09-29T10:58:21.215Z,9.67
2023-09-29T11:00:50.415Z,9.65
2023-09-29T11:03:21.704Z,8.05
2023-09-29T11:05:50.760Z,7.93
2023-09-29T11:08:21.419Z,6.95
2023-09-29T11:11:04.179Z,9.00
2023-09-29T11:13:32.412Z,9.05
2023-09-29T11:16:00.608Z,9.80
2023-09-29T11:18:36.164Z,10.02
2023-09-29T11:21:12.195Z,7.65
2023-09-29T11:23:45.563Z,9.10
2023-09-29T11:26:13.983Z,10.65
2023-09-29T11:28:48.812Z,10.88
2023-09-29T11:31:16.905Z,9.80
2023-09-29T11:33:46.596Z,12.05
2023-09-29T11:36:22.907Z,8.13
2023-09-29T11:38:53.696Z,9.57
2023-09-29T11:41:22.821Z,9.32
2023-09-29T11:43:51.312Z,10.75
2023-09-29T11:46:19.529Z,11.10
2023-09-29T11:48:47.767Z,7.73
2023-09-29T11:51:15.539Z,9.25
2023-09-29T11:53:45.448Z,7.85
2023-09-29T11:56:13.012Z,8.55
2023-09-29T11:58:40.881Z,7.85
2023-09-29T12:01:10.075Z,7.33
2023-09-29T12:03:37.728Z,8.07
2023-09-29T12:06:04.998Z,8.48
2023-09-29T12:08:32.569Z,6.22
2023-09-29T12:11:00.267Z,10.15
2023-09-29T12:13:27.836Z,7.83
2023-09-29T12:15:54.943Z,8.20
2023-09-29T12:18:22.347Z,8.13
2023-09-29T12:20:53.812Z,7.18
2023-09-29T12:23:21.140Z,7.70
2023-09-29T12:25:48.424Z,7.50
2023-09-29T12:28:16.499Z,7.80
2023-09-29T12:30:45.650Z,6.65
2023-09-29T12:33:13.046Z,8.38
2023-09-29T12:35:40.029Z,7.95
2023-09-29T12:38:07.265Z,8.00
2023-09-29T12:40:34.664Z,6.32
2023-09-29T12:43:04.914Z,5.70
2023-09-29T12:45:31.880Z,8.40
2023-09-29T12:47:59.902Z,8.60
2023-09-29T12:50:27.230Z,7.20
2023-09-29T12:52:54.563Z,8.35
2023-09-29T12:55:21.890Z,7.70
2023-09-29T12:57:49.664Z,7.72
2023-09-29T13:00:24.295Z,7.13
2023-09-29T13:02:55.274Z,8.53
2023-09-29T13:05:24.057Z,9.05
2023-09-29T13:07:53.536Z,10.85
2023-09-29T13:10:21.031Z,7.57
2023-09-29T13:12:55.914Z,8.32
2023-09-29T13:15:23.185Z,8.43
2023-09-29T13:17:51.276Z,12.45
2023-09-29T13:20:18.310Z,8.88
2023-09-29T13:22:45.522Z,10.73
2023-09-29T13:25:12.639Z,7.32
2023-09-29T13:27:39.909Z,9.33
2023-09-29T13:30:07.619Z,8.55
2023-09-29T13:32:35.407Z,9.70
2023-09-29T13:35:02.736Z,8.55
2023-09-29T13:37:30.551Z,7.25
2023-09-29T13:39:58.496Z,8.47
2023-09-29T13:42:25.857Z,8.48
2023-09-29T13:44:52.869Z,8.07
2023-09-29T13:47:20.154Z,9.25
2023-09-29T13:49:47.051Z,8.50
2023-09-29T13:52:20.513Z,9.10
2023-09-29T13:54:51.227Z,8.93
2023-09-29T13:57:18.925Z,7.88
2023-09-29T13:59:45.917Z,9.48
2023-09-29T14:02:13.448Z,6.65
2023-09-29T14:04:41.155Z,8.33
2023-09-29T14:07:08.817Z,8.77
2023-09-29T14:09:39.730Z,8.75
2023-09-29T14:12:09.085Z,10.75
2023-09-29T14:14:36.412Z,8.15
2023-09-29T14:17:06.205Z,8.83
2023-09-29T14:19:34.093Z,6.45
2023-09-29T14:22:01.388Z,6.63
2023-09-29T14:24:28.592Z,9.57
2023-09-29T14:26:55.940Z,8.75
2023-09-29T14:29:22.878Z,6.70
2023-09-29T14:31:51.246Z,13.38
2023-09-29T14:34:18.201Z,7.57
2023-09-29T14:36:45.706Z,8.50
2023-09-29T14:39:12.743Z,7.32
2023-09-29T14:41:40.100Z,11.87
2023-09-29T14:44:07.314Z,9.90
2023-09-29T14:46:34.915Z,10.02
2023-09-29T14:49:02.502Z,8.70
2023-09-29T14:51:30.111Z,6.72
2023-09-29T14:53:58.195Z,6.17
2023-09-29T14:56:25.676Z,7.82
2023-09-29T14:58:53.558Z,6.25
2023-09-29T15:01:20.962Z,7.10
2023-09-29T15:03:49.799Z,7.07
2023-09-29T15:06:17.393Z,10.37
2023-09-29T15:08:44.767Z,7.85
2023-09-29T15:11:19.262Z,7.90
2023-09-29T15:13:47.473Z,7.35
2023-09-29T15:16:16.048Z,8.15
2023-09-29T15:18:51.815Z,7.90
2023-09-29T15:21:19.836Z,7.75
2023-09-29T15:23:55.411Z,6.90
2023-09-29T15:26:25.586Z,7.03
2023-09-29T15:28:52.738Z,9.85
2023-09-29T15:31:20.629Z,6.27
2023-09-29T15:33:47.761Z,7.00
2023-09-29T15:36:15.088Z,7.47
2023-09-29T15:38:42.173Z,7.25
2023-09-29T15:41:10.172Z,7.45
2023-09-29T15:43:37.418Z,7.27
2023-09-29T15:46:12.019Z,13.02
2023-09-29T15:48:40.261Z,6.65
2023-09-29T15:51:08.028Z,6.60
2023-09-29T15:53:36.461Z,6.70
2023-09-29T15:56:05.418Z,6.70
2023-09-29T15:58:34.447Z,12.43
2023-09-29T16:01:03.093Z,7.90
2023-09-29T16:03:30.577Z,12.30
2023-09-29T16:06:02.293Z,11.43
2023-09-29T16:08:29.386Z,11.30
2023-09-29T16:10:59.918Z,17.25
2023-09-29T16:13:28.262Z,14.02
2023-09-29T16:15:57.398Z,11.10
2023-09-29T16:18:24.787Z,9.07
2023-09-29T16:20:52.411Z,11.13
2023-09-29T16:23:19.539Z,10.07
2023-09-29T16:25:46.800Z,7.28
2023-09-29T16:28:13.703Z,8.65
2023-09-29T16:30:41.298Z,8.70
2023-09-29T16:33:08.387Z,9.73
2023-09-29T16:35:38.895Z,10.60
2023-09-29T16:38:07.810Z,10.10
2023-09-29T16:40:36.868Z,9.65
2023-09-29T16:43:03.980Z,13.15
2023-09-29T16:45:31.388Z,10.43
2023-09-29T16:47:58.649Z,9.52
2023-09-29T16:50:26.111Z,8.60
2023-09-29T16:52:53.056Z,7.07
2023-09-29T16:55:20.322Z,8.60
2023-09-29T16:57:47.287Z,6.73
2023-09-29T17:00:16.040Z,5.32
2023-09-29T17:02:43.253Z,6.88
2023-09-29T17:05:11.055Z,6.90
2023-09-29T17:07:38.039Z,5.20
2023-09-29T17:10:05.894Z,5.13
2023-09-29T17:12:33.536Z,7.43
2023-09-29T17:15:03.837Z,6.15
2023-09-29T17:17:30.881Z,6.93
2023-09-29T17:20:00.553Z,7.43
2023-09-29T17:22:27.509Z,11.67
2023-09-29T17:24:54.793Z,9.25
2023-09-29T17:27:22.315Z,9.07
2023-09-29T17:29:49.957Z,11.43
2023-09-29T17:32:17.583Z,11.65
2023-09-29T17:34:44.918Z,15.77
2023-09-29T17:37:11.801Z,16.58
2023-09-29T17:39:39.456Z,14.52
2023-09-29T17:42:07.192Z,16.30
2023-09-29T17:44:34.640Z,16.58
2023-09-29T17:47:01.698Z,16.13
2023-09-29T17:49:29.016Z,16.67
2023-09-29T17:51:56.990Z,19.85
2023-09-29T17:54:24.277Z,18.50
2023-09-29T17:56:51.209Z,22.38
2023-09-29T17:59:18.476Z,20.13
2023-09-29T18:01:45.607Z,20.42
2023-09-29T18:04:13.554Z,21.83
2023-09-29T18:06:41.341Z,19.35
2023-09-29T18:09:08.592Z,19.95
2023-09-29T18:11:36.079Z,18.03
2023-09-29T18:14:03.503Z,16.25
2023-09-29T18:16:31.331Z,17.65
2023-09-29T18:18:59.120Z,19.58
2023-09-29T18:21:27.928Z,22.27
2023-09-29T18:23:55.259Z,19.20
2023-09-29T18:26:22.257Z,19.10
2023-09-29T18:28:49.542Z,20.33
2023-09-29T18:31:17.520Z,17.25
2023-09-29T18:33:44.968Z,17.25
2023-09-29T18:36:12.328Z,18.60
2023-09-29T18:38:39.910Z,18.85
2023-09-29T18:41:06.948Z,14.85
2023-09-29T18:43:34.307Z,15.80
2023-09-29T18:46:02.792Z,16.40
2023-09-29T18:48:30.213Z,15.83
2023-09-29T18:51:02.883Z,17.95
2023-09-29T18:53:30.521Z,15.80
2023-09-29T18:55:57.908Z,16.33
2023-09-29T18:58:25.565Z,15.48
2023-09-29T19:00:52.771Z,17.58
2023-09-29T19:03:20.196Z,15.50
2023-09-29T19:05:47.408Z,18.67
2023-09-29T19:08:14.925Z,19.63
2023-09-29T19:10:44.082Z,18.88
2023-09-29T19:13:11.540Z,20.58
2023-09-29T19:15:43.396Z,21.57
2023-09-29T19:18:10.836Z,25.05
2023-09-29T19:20:38.585Z,30.52
2023-09-29T19:23:06.151Z,27.73
2023-09-29T19:25:36.179Z,32.65
2023-09-29T19:28:04.773Z,32.40
2023-09-29T19:30:32.127Z,23.75
2023-09-29T19:32:59.966Z,28.23
2023-09-29T19:35:27.188Z,22.13
2023-09-29T19:37:54.557Z,32.40
2023-09-29T19:40:21.766Z,32.93
2023-09-29T19:42:49.288Z,33.40
2023-09-29T19:45:16.365Z,29.45
2023-09-29T19:47:43.727Z,25.85
2023-09-29T19:50:11.078Z,29.15
2023-09-29T19:52:38.500Z,20.10
2023-09-29T19:55:08.956Z,22.52
2023-09-29T19:57:37.944Z,22.92
2023-09-29T20:00:06.629Z,25.75
2023-09-29T20:02:39.728Z,24.10
2023-09-29T20:05:07.858Z,24.97
2023-09-29T20:07:36.118Z,25.58
2023-09-29T20:10:03.360Z,29.15
2023-09-29T20:12:30.689Z,24.15
2023-09-29T20:14:58.052Z,28.10
2023-09-29T20:17:25.627Z,26.67
2023-09-29T20:19:52.690Z,25.40
2023-09-29T20:22:19.956Z,26.45
2023-09-29T20:24:47.706Z,23.88
2023-09-29T20:27:15.076Z,22.55
2023-09-29T20:29:41.971Z,24.70
2023-09-29T20:32:09.188Z,20.95
2023-09-29T20:34:37.327Z,22.85
2023-09-29T20:37:04.561Z,21.73
2023-09-29T20:39:33.085Z,23.88
2023-09-29T20:42:02.169Z,25.43
2023-09-29T20:44:29.240Z,19.80
2023-09-29T20:46:56.880Z,20.00
2023-09-29T20:49:23.799Z,19.23
2023-09-29T20:51:51.163Z,19.00
2023-09-29T20:54:18.330Z,21.37
2023-09-29T20:56:45.593Z,18.88
2023-09-29T20:59:12.858Z,16.38
2023-09-29T21:01:40.094Z,17.05
2023-09-29T21:04:07.983Z,18.83
2023-09-29T21:06:35.572Z,17.53
2023-09-29T21:09:02.691Z,18.05
2023-09-29T21:11:33.078Z,19.30
2023-09-29T21:14:00.152Z,18.17
2023-09-29T21:16:27.505Z,16.33
2023-09-29T21:18:55.023Z,18.93
2023-09-29T21:21:22.597Z,16.60
2023-09-29T21:23:49.613Z,15.57
2023-09-29T21:26:17.089Z,16.45
2023-09-29T21:28:44.255Z,16.02
2023-09-29T21:31:13.346Z,15.33
2023-09-29T21:33:40.339Z,15.32
2023-09-29T21:36:17.032Z,16.25
2023-09-29T21:38:44.217Z,17.38
2023-09-29T21:41:11.562Z,14.75
2023-09-29T21:43:38.811Z,17.43
2023-09-29T21:46:07.024Z,17.23
2023-09-29T21:48:34.263Z,14.23
2023-09-29T21:51:01.576Z,13.10
2023-09-29T21:53:28.828Z,17.52
2023-09-29T21:55:56.520Z,15.30
2023-09-29T21:58:23.461Z,14.55
2023-09-29T22:00:53.600Z,12.98
2023-09-29T22:03:23.496Z,13.35
2023-09-29T22:05:54.867Z,15.10
2023-09-29T22:08:23.063Z,13.80
2023-09-29T22:10:51.651Z,15.18
2023-09-29T22:13:21.391Z,12.48
2023-09-29T22:15:52.606Z,12.38
2023-09-29T22:18:20.392Z,13.48
2023-09-29T22:20:48.228Z,16.13
2023-09-29T22:23:17.878Z,16.58
2023-09-29T22:25:45.667Z,17.65
2023-09-29T22:28:13.119Z,14.27
2023-09-29T22:30:40.690Z,18.80
2023-09-29T22:33:08.394Z,18.37
2023-09-29T22:35:37.406Z,17.92
2023-09-29T22:38:05.345Z,18.10
2023-09-29T22:40:32.996Z,24.80
2023-09-29T22:42:59.981Z,20.30
2023-09-29T22:45:27.392Z,23.77
2023-09-29T22:47:54.947Z,25.15
2023-09-29T22:50:22.787Z,22.13
2023-09-29T22:52:50.028Z,17.60
2023-09-29T22:55:17.298Z,14.60
2023-09-29T22:57:44.340Z,15.90
2023-09-29T23:00:13.513Z,15.30
2023-09-29T23:02:44.175Z,14.20
2023-09-29T23:05:12.594Z,14.15
2023-09-29T23:07:40.107Z,15.20
2023-09-29T23:10:10.649Z,16.00
2023-09-29T23:12:38.753Z,15.13
2023-09-29T23:15:08.378Z,12.32
2023-09-29T23:17:35.356Z,16.15
2023-09-29T23:20:05.353Z,13.68
2023-09-29T23:22:33.059Z,18.30
2023-09-29T23:25:00.535Z,14.30
2023-09-29T23:27:27.645Z,13.65
2023-09-29T23:29:57.840Z,16.83
2023-09-29T23:32:24.775Z,13.35
2023-09-29T23:34:52.681Z,16.57
2023-09-29T23:37:19.570Z,16.50
2023-09-29T23:39:46.902Z,17.77
2023-09-29T23:42:14.036Z,15.32
2023-09-29T23:44:41.301Z,19.02
2023-09-29T23:47:08.249Z,15.73
2023-09-29T23:49:35.826Z,18.52
2023-09-29T23:52:03.317Z,19.50
2023-09-29T23:54:30.656Z,17.98
2023-09-29T23:56:57.834Z,15.55
2023-09-29T23:59:25.062Z,15.00
